Surface observations / UK / EGOM

Quebec | Canada | USA | France | UK | Europe | Elsewhere

Display: Info & Location for EGOM | Help decoding METAR


Raw surface observations for station EGOM
EGOM 302150Z AUTO 23008KT 9999 NCD 02/00 Q1021=
EGOM 302050Z AUTO 25005KT 9999 NCD 03/01 Q1021=
EGOM 301950Z AUTO 26007KT 9999 FEW031/// 03/01 Q1021=
EGOM 301850Z AUTO 25009KT 9999 FEW070/// 05/01 Q1020=
EGOM 301750Z AUTO 26013KT 9999 BKN070/// 06/02 Q1020=
EGOM 301650Z AUTO 27012KT 9999 FEW023/// BKN070/// 07/02 Q1020=
EGOM 301550Z AUTO 26013KT 9999 FEW023/// 07/03 Q1019=
EGOM 301450Z AUTO 26013KT 9999 SCT022/// SCT027/// 08/03 Q1019=
EGOM 301350Z AUTO 26013KT 9999 FEW023/// BKN045/// 07/03 Q1019 RERA=
EGOM 301250Z AUTO 27008KT 9999 FEW027/// SCT070/// 07/02 Q1018 RERA=
EGOM 301150Z AUTO 25011KT 9999 FEW026/// SCT038/// 07/M00 Q1017=
EGOM 301050Z AUTO 26012KT 9999 SCT023/// 07/01 Q1017=
EGOM 300950Z AUTO 25012KT 9999 FEW013/// 06/03 Q1017=
EGOM 300850Z AUTO 27012KT 9999 BKN007/// 05/04 Q1016=
EGOM 300750Z AUTO 25008KT 9999 SCT004/// 03/02 Q1016=
EGOM 300650Z AUTO 25010KT 9999 FEW002/// 01/01 Q1015=
EGOM 300550Z AUTO 25007KT 9999 FEW002/// 01/01 Q1015=
EGOM 300450Z AUTO 25006KT 7000 BR FEW001/// M01/M01 Q1014=
EGOM 300350Z AUTO 25009KT 9999 NCD M01/M01 Q1014=
EGOM 300250Z AUTO 26009KT 9999 FEW060/// M01/M02 Q1013=
EGOM 300150Z AUTO 27006KT 9999 FEW060/// M01/M02 Q1013=
EGOM 300050Z AUTO 27006KT 9999 NCD M01/M02 Q1013=
EGOM 292350Z AUTO 27006KT 9999 FEW060/// M00/M01 Q1012=
EGOM 292250Z AUTO 27006KT 9999 SCT160/// 00/M01 Q1012=
EGOM 292050Z AUTO 29010KT 9999 BKN150/// 02/00 Q1010 =